createdAt,value
2019-06-26T00:00:13.424Z,16.70
2019-06-26T00:01:13.410Z,16.00
2019-06-26T00:02:13.407Z,14.60
2019-06-26T00:03:13.390Z,19.20
2019-06-26T00:04:13.380Z,15.10
2019-06-26T00:05:13.390Z,15.20
2019-06-26T00:06:13.361Z,17.50
2019-06-26T00:07:13.347Z,15.30
2019-06-26T00:08:13.350Z,14.00
2019-06-26T00:09:13.329Z,18.40
2019-06-26T00:10:13.337Z,14.80
2019-06-26T00:11:13.306Z,17.70
2019-06-26T00:12:13.296Z,17.50
2019-06-26T00:13:25.719Z,15.60
2019-06-26T00:14:14.274Z,17.20
2019-06-26T00:15:13.284Z,18.10
2019-06-26T00:16:13.309Z,18.30
2019-06-26T00:17:13.252Z,18.50
2019-06-26T00:18:13.232Z,19.90
2019-06-26T00:19:13.225Z,16.00
2019-06-26T00:20:13.234Z,17.00
2019-06-26T00:21:13.204Z,16.20
2019-06-26T00:22:13.347Z,16.70
2019-06-26T00:23:13.181Z,16.90
2019-06-26T00:24:13.171Z,17.00
2019-06-26T00:25:13.182Z,19.90
2019-06-26T00:26:13.166Z,17.10
2019-06-26T00:27:13.140Z,18.10
2019-06-26T00:28:13.128Z,18.70
2019-06-26T00:29:13.120Z,20.50
2019-06-26T00:30:13.129Z,17.70
2019-06-26T00:31:13.098Z,20.70
2019-06-26T00:32:13.087Z,21.10
2019-06-26T00:33:13.075Z,19.10
2019-06-26T00:34:13.066Z,20.20
2019-06-26T00:35:13.092Z,24.90
2019-06-26T00:36:13.052Z,18.80
2019-06-26T00:37:13.035Z,21.30
2019-06-26T00:38:13.023Z,19.50
2019-06-26T00:39:13.019Z,20.30
2019-06-26T00:40:13.026Z,19.70
2019-06-26T00:41:12.990Z,19.30
2019-06-26T00:42:12.982Z,19.50
2019-06-26T00:43:12.969Z,23.20
2019-06-26T00:44:12.968Z,23.30
2019-06-26T00:45:12.949Z,19.40
2019-06-26T00:46:12.956Z,23.60
2019-06-26T00:47:12.929Z,19.70
2019-06-26T00:48:12.921Z,22.00
2019-06-26T00:49:12.907Z,19.40
2019-06-26T00:50:12.899Z,22.40
2019-06-26T00:51:12.906Z,23.70
2019-06-26T00:52:12.876Z,21.70
2019-06-26T00:53:12.873Z,20.20
2019-06-26T00:54:12.853Z,20.80
2019-06-26T00:55:12.865Z,22.60
2019-06-26T00:56:12.851Z,21.60
2019-06-26T00:57:12.835Z,24.90
2019-06-26T00:58:12.814Z,22.30
2019-06-26T00:59:12.802Z,22.00
2019-06-26T01:00:12.789Z,20.20
2019-06-26T01:01:12.797Z,18.10
2019-06-26T01:02:12.798Z,22.20
2019-06-26T01:03:12.758Z,21.30
2019-06-26T01:04:12.759Z,20.60
2019-06-26T01:05:12.736Z,20.80
2019-06-26T01:06:12.751Z,21.90
2019-06-26T01:07:12.715Z,22.00
2019-06-26T01:08:12.709Z,25.50
2019-06-26T01:09:12.694Z,25.00
2019-06-26T01:10:12.684Z,24.80
2019-06-26T01:11:12.705Z,27.90
2019-06-26T01:12:12.665Z,26.40
2019-06-26T01:13:12.655Z,26.80
2019-06-26T01:14:12.646Z,29.40
2019-06-26T01:15:12.634Z,30.20
2019-06-26T01:16:12.643Z,33.10
2019-06-26T01:17:12.614Z,27.70
2019-06-26T01:18:12.599Z,30.20
2019-06-26T01:19:12.590Z,33.60
2019-06-26T01:20:12.595Z,33.60
2019-06-26T01:21:12.574Z,28.80
2019-06-26T01:22:12.573Z,36.30
2019-06-26T01:23:12.593Z,36.40
2019-06-26T01:24:12.558Z,34.70
2019-06-26T01:25:12.529Z,35.20
2019-06-26T01:26:13.303Z,34.20
2019-06-26T01:27:12.528Z,40.30
2019-06-26T01:28:12.506Z,38.20
2019-06-26T01:29:12.481Z,38.30
2019-06-26T01:30:12.469Z,36.00
2019-06-26T01:31:12.461Z,42.00
2019-06-26T01:32:12.470Z,38.30
2019-06-26T01:33:12.457Z,42.30
2019-06-26T01:34:12.429Z,37.90
2019-06-26T01:35:12.419Z,41.70
2019-06-26T01:36:12.410Z,41.80
2019-06-26T01:37:12.426Z,44.90
2019-06-26T01:38:12.387Z,36.60
2019-06-26T01:39:12.374Z,46.20
2019-06-26T01:40:12.368Z,43.10
2019-06-26T01:41:12.361Z,45.60
2019-06-26T01:42:12.373Z,42.30
2019-06-26T01:43:12.332Z,41.30
2019-06-26T01:44:15.279Z,42.70
2019-06-26T01:45:12.310Z,42.90
2019-06-26T01:46:12.317Z,34.90
2019-06-26T01:47:12.309Z,40.10
2019-06-26T01:48:12.280Z,40.30
2019-06-26T01:49:12.272Z,40.10
2019-06-26T01:50:12.257Z,37.70
2019-06-26T01:51:12.257Z,41.10
2019-06-26T01:52:12.256Z,38.80
2019-06-26T01:53:12.224Z,39.70
2019-06-26T01:54:12.212Z,38.20
2019-06-26T01:55:12.209Z,41.90
2019-06-26T01:56:12.199Z,43.60
2019-06-26T01:57:12.203Z,41.70
2019-06-26T01:58:12.178Z,41.00
2019-06-26T01:59:12.156Z,42.40
2019-06-26T02:00:12.162Z,40.80
2019-06-26T02:01:12.140Z,42.70
2019-06-26T02:02:12.125Z,44.80
2019-06-26T02:03:12.143Z,43.10
2019-06-26T02:04:15.486Z,44.80
2019-06-26T02:05:12.122Z,41.30
2019-06-26T02:06:12.092Z,45.60
2019-06-26T02:07:12.071Z,40.70
2019-06-26T02:08:12.103Z,47.40
2019-06-26T02:09:12.048Z,45.90
2019-06-26T02:10:12.043Z,49.50
2019-06-26T02:11:12.033Z,49.30
2019-06-26T02:12:12.028Z,45.00
2019-06-26T02:13:12.393Z,40.80
2019-06-26T02:14:12.010Z,45.30
2019-06-26T02:15:11.985Z,45.30
2019-06-26T02:16:12.015Z,46.90
2019-06-26T02:17:11.963Z,46.40
2019-06-26T02:18:11.964Z,46.00
2019-06-26T02:19:11.960Z,42.90
2019-06-26T02:20:11.939Z,45.20
2019-06-26T02:21:11.930Z,44.80
2019-06-26T02:22:11.910Z,44.30
2019-06-26T02:23:11.897Z,45.20
2019-06-26T02:24:11.924Z,42.20
2019-06-26T02:25:11.876Z,44.50
2019-06-26T02:26:11.880Z,45.60
2019-06-26T02:27:11.874Z,42.60
2019-06-26T02:28:11.844Z,45.40
2019-06-26T02:29:11.866Z,44.60
2019-06-26T02:30:11.831Z,45.50
2019-06-26T02:31:11.815Z,46.10
2019-06-26T02:32:11.803Z,47.80
2019-06-26T02:33:11.793Z,44.20
2019-06-26T02:34:11.822Z,45.80
2019-06-26T02:35:11.768Z,44.10
2019-06-26T02:36:11.760Z,52.00
2019-06-26T02:37:11.750Z,47.00
2019-06-26T02:38:11.753Z,48.50
2019-06-26T02:39:11.745Z,46.60
2019-06-26T02:40:11.721Z,44.70
2019-06-26T02:41:11.705Z,45.60
2019-06-26T02:42:11.695Z,49.20
2019-06-26T02:43:11.685Z,47.40
2019-06-26T02:44:11.690Z,45.60
2019-06-26T02:45:11.659Z,46.10
2019-06-26T02:46:11.652Z,44.70
2019-06-26T02:47:19.630Z,48.10
2019-06-26T02:48:12.626Z,53.80
2019-06-26T02:49:11.635Z,49.10
2019-06-26T02:50:11.610Z,47.20
2019-06-26T02:51:11.598Z,57.40
2019-06-26T02:52:11.583Z,47.00
2019-06-26T02:53:11.583Z,46.40
2019-06-26T02:54:11.582Z,46.50
2019-06-26T02:55:11.551Z,45.10
2019-06-26T02:56:11.580Z,48.10
2019-06-26T02:57:11.534Z,48.50
2019-06-26T02:58:11.538Z,50.40
2019-06-26T02:59:11.525Z,47.30
2019-06-26T03:00:11.501Z,47.30
2019-06-26T03:01:11.500Z,48.30
2019-06-26T03:02:11.475Z,45.40
2019-06-26T03:03:11.473Z,45.40
2019-06-26T03:04:11.524Z,46.30
2019-06-26T03:05:11.443Z,49.20
2019-06-26T03:06:11.432Z,48.10
2019-06-26T03:07:11.420Z,48.30
2019-06-26T03:08:11.419Z,46.70
2019-06-26T03:09:11.436Z,49.60
2019-06-26T03:10:11.392Z,49.80
2019-06-26T03:11:11.388Z,48.60
2019-06-26T03:12:11.385Z,45.20
2019-06-26T03:13:11.402Z,53.50
2019-06-26T03:14:11.383Z,46.90
2019-06-26T03:15:11.336Z,50.40
2019-06-26T03:16:11.340Z,45.00
2019-06-26T03:17:11.321Z,49.30
2019-06-26T03:18:11.304Z,54.50
2019-06-26T03:19:24.022Z,48.70
2019-06-26T03:21:55.641Z,49.20
2019-06-26T03:24:39.762Z,46.00
2019-06-26T03:29:08.579Z,53.60
2019-06-26T03:33:10.401Z,45.20
2019-06-26T03:35:27.384Z,50.00
2019-06-26T03:36:33.830Z,50.60
2019-06-26T03:39:52.455Z,38.70
2019-06-26T03:40:52.360Z,50.90
2019-06-26T03:41:52.500Z,51.60
2019-06-26T03:42:52.332Z,49.40
2019-06-26T03:43:52.319Z,47.90
2019-06-26T03:44:52.326Z,49.70
2019-06-26T03:45:52.401Z,52.40
2019-06-26T03:46:52.294Z,43.40
2019-06-26T03:47:52.278Z,51.60
2019-06-26T03:48:52.264Z,49.50
2019-06-26T03:49:52.279Z,52.90
2019-06-26T03:50:52.244Z,51.70
2019-06-26T03:51:52.239Z,54.10
2019-06-26T03:52:52.225Z,58.00
2019-06-26T03:53:52.229Z,57.20
2019-06-26T03:54:52.235Z,50.80
2019-06-26T03:55:52.197Z,51.40
2019-06-26T03:56:52.181Z,51.30
2019-06-26T03:57:52.170Z,51.80
2019-06-26T03:58:52.171Z,54.70
2019-06-26T03:59:52.169Z,55.70
2019-06-26T04:00:52.137Z,54.60
2019-06-26T04:01:52.124Z,53.80
2019-06-26T04:02:52.128Z,51.80
2019-06-26T04:03:52.135Z,48.00
2019-06-26T04:04:52.113Z,57.50
2019-06-26T04:05:52.097Z,66.60
2019-06-26T04:06:52.076Z,56.10
2019-06-26T04:07:52.075Z,56.20
2019-06-26T04:08:52.048Z,63.60
2019-06-26T04:09:52.057Z,56.30
2019-06-26T04:10:52.033Z,61.20
2019-06-26T04:11:52.026Z,57.20
2019-06-26T04:12:52.111Z,57.30
2019-06-26T04:13:51.996Z,53.10
2019-06-26T04:14:52.014Z,53.20
2019-06-26T04:15:51.989Z,49.40
2019-06-26T04:16:52.002Z,54.20
2019-06-26T04:17:51.969Z,53.80
2019-06-26T04:18:52.009Z,58.70
2019-06-26T04:19:51.938Z,52.30
2019-06-26T04:20:51.949Z,52.20
2019-06-26T04:21:51.923Z,53.60
2019-06-26T04:22:51.905Z,48.80
2019-06-26T04:52:00.532Z,49.10
2019-06-26T04:53:00.134Z,45.70
2019-06-26T04:54:00.251Z,50.30
2019-06-26T04:54:59.754Z,45.40
2019-06-26T04:55:59.726Z,44.70
2019-06-26T04:56:59.927Z,44.30
2019-06-26T04:57:59.701Z,41.40
2019-06-26T05:00:24.967Z,42.20
2019-06-26T05:01:18.712Z,47.50
2019-06-26T05:02:18.736Z,53.80
2019-06-26T05:03:25.476Z,52.50
2019-06-26T05:11:21.357Z,48.40
2019-06-26T05:12:21.516Z,48.90
2019-06-26T05:13:21.447Z,50.00
2019-06-26T05:14:21.251Z,50.20
2019-06-26T05:15:21.181Z,47.30
2019-06-26T05:16:21.258Z,51.40
2019-06-26T05:17:21.222Z,46.80
2019-06-26T05:18:21.193Z,47.30
2019-06-26T05:19:21.163Z,51.80
2019-06-26T05:20:21.163Z,56.90
2019-06-26T05:21:21.118Z,53.70
2019-06-26T05:22:21.132Z,51.80
2019-06-26T05:23:21.088Z,49.50
2019-06-26T05:24:21.126Z,54.20
2019-06-26T05:25:21.128Z,56.80
2019-06-26T05:26:21.090Z,46.80
2019-06-26T05:27:21.112Z,53.10
2019-06-26T05:28:21.062Z,50.80
2019-06-26T05:29:21.101Z,55.60
2019-06-26T05:30:21.063Z,49.40
2019-06-26T05:31:21.029Z,54.50
2019-06-26T05:32:21.039Z,53.60
2019-06-26T05:33:20.995Z,52.20
2019-06-26T05:34:21.032Z,53.00
2019-06-26T05:35:20.970Z,53.50
2019-06-26T05:36:21.090Z,54.30
2019-06-26T05:37:20.980Z,57.30
2019-06-26T05:38:20.981Z,52.70
2019-06-26T05:39:20.914Z,54.00
2019-06-26T05:40:20.963Z,51.30
2019-06-26T05:41:20.974Z,53.70
2019-06-26T05:42:20.908Z,52.60
2019-06-26T05:43:20.998Z,56.90
2019-06-26T05:44:20.900Z,51.50
2019-06-26T05:45:20.944Z,55.20
2019-06-26T05:46:30.592Z,53.00
2019-06-26T05:47:22.244Z,55.40
2019-06-26T05:48:20.827Z,58.20
2019-06-26T05:49:20.852Z,56.50
2019-06-26T05:50:20.851Z,55.40
2019-06-26T05:52:32.378Z,53.50
2019-06-26T05:53:32.192Z,50.20
2019-06-26T05:54:32.336Z,52.20
2019-06-26T05:55:32.089Z,51.60
2019-06-26T05:56:32.141Z,49.60
2019-06-26T05:57:32.063Z,46.80
2019-06-26T05:58:32.046Z,43.40
2019-06-26T05:59:32.053Z,47.10
2019-06-26T06:00:41.038Z,48.60
2019-06-26T06:01:32.177Z,42.00
2019-06-26T06:02:32.269Z,46.00
2019-06-26T06:03:41.746Z,48.20
2019-06-26T06:04:32.108Z,48.50
2019-06-26T06:05:32.230Z,49.20
2019-06-26T06:06:41.598Z,51.20
2019-06-26T06:07:32.966Z,41.30
2019-06-26T06:08:39.697Z,46.60
2019-06-26T06:09:32.067Z,43.60
2019-06-26T06:10:32.189Z,46.10
2019-06-26T06:11:31.974Z,49.80
2019-06-26T06:12:31.950Z,46.00
2019-06-26T06:13:31.888Z,49.40
2019-06-26T06:14:31.950Z,43.10
2019-06-26T06:15:31.871Z,42.10
2019-06-26T06:16:46.234Z,46.80
2019-06-26T06:17:32.881Z,48.20
2019-06-26T06:18:31.831Z,48.40
2019-06-26T06:19:31.831Z,45.00
2019-06-26T06:20:31.821Z,40.10
2019-06-26T06:21:31.821Z,37.50
2019-06-26T06:22:31.798Z,41.30
2019-06-26T06:23:31.788Z,44.50
2019-06-26T06:24:31.809Z,42.80
2019-06-26T06:25:31.762Z,40.00
2019-06-26T06:26:31.769Z,41.60
2019-06-26T06:27:31.734Z,42.10
2019-06-26T06:28:31.728Z,39.20
2019-06-26T06:29:31.721Z,39.60
2019-06-26T06:30:31.703Z,42.30
2019-06-26T06:31:31.820Z,41.40
2019-06-26T06:32:31.683Z,43.60
2019-06-26T06:33:31.688Z,43.70
2019-06-26T06:34:31.657Z,37.70
2019-06-26T06:35:31.644Z,38.80
2019-06-26T06:36:31.634Z,38.80
2019-06-26T06:37:31.658Z,39.80
2019-06-26T06:38:31.611Z,36.70
2019-06-26T06:39:31.605Z,38.20
2019-06-26T06:40:31.594Z,36.10
2019-06-26T06:41:31.576Z,39.80
2019-06-26T06:42:31.585Z,39.20
2019-06-26T06:43:31.609Z,39.60
2019-06-26T06:44:31.548Z,34.50
2019-06-26T06:45:31.575Z,38.20
2019-06-26T06:46:31.526Z,36.30
2019-06-26T06:47:31.546Z,42.60
2019-06-26T06:48:31.506Z,42.40
2019-06-26T06:49:31.491Z,40.50
2019-06-26T06:50:31.488Z,42.90
2019-06-26T06:51:31.474Z,43.10
2019-06-26T06:52:31.480Z,44.40
2019-06-26T06:53:31.452Z,45.40
2019-06-26T06:54:31.440Z,41.50
2019-06-26T06:55:31.425Z,39.60
2019-06-26T06:56:31.425Z,45.10
2019-06-26T06:57:31.426Z,37.80
2019-06-26T06:58:31.399Z,42.10
2019-06-26T06:59:31.381Z,42.30
2019-06-26T07:00:31.373Z,46.70
2019-06-26T07:01:31.371Z,43.20
2019-06-26T07:02:31.376Z,41.90
2019-06-26T07:03:31.340Z,36.70
2019-06-26T07:04:31.332Z,46.50
2019-06-26T07:05:31.318Z,44.80
2019-06-26T07:06:31.314Z,48.10
2019-06-26T07:07:31.298Z,42.40
2019-06-26T07:08:31.312Z,48.40
2019-06-26T07:09:31.279Z,49.30
2019-06-26T07:10:31.278Z,45.20
2019-06-26T07:11:31.263Z,45.90
2019-06-26T07:12:31.261Z,47.40
2019-06-26T07:13:31.257Z,42.70
2019-06-26T07:14:31.227Z,45.40
2019-06-26T07:15:31.227Z,47.40
2019-06-26T07:16:31.205Z,48.20
2019-06-26T07:17:31.266Z,48.50
2019-06-26T07:18:31.210Z,48.20
2019-06-26T07:19:31.187Z,48.30
2019-06-26T07:20:31.162Z,44.30
2019-06-26T07:21:31.153Z,42.70
2019-06-26T07:22:31.147Z,43.70
2019-06-26T07:23:31.154Z,49.50
2019-06-26T07:24:31.135Z,42.50
2019-06-26T07:25:31.109Z,40.20
2019-06-26T07:26:31.252Z,46.00
2019-06-26T07:27:31.092Z,40.80
2019-06-26T07:28:31.167Z,35.50
2019-06-26T07:29:31.895Z,41.70
2019-06-26T07:30:31.057Z,36.20
2019-06-26T07:31:31.046Z,41.20
2019-06-26T07:32:31.041Z,42.20
2019-06-26T07:33:31.053Z,38.40
2019-06-26T07:34:31.060Z,44.30
2019-06-26T07:35:31.010Z,44.10
2019-06-26T07:36:31.020Z,46.20
2019-06-26T07:37:30.995Z,44.10
2019-06-26T07:38:31.007Z,41.20
2019-06-26T07:39:31.019Z,39.50
2019-06-26T07:40:30.957Z,44.70
2019-06-26T07:41:30.947Z,44.10
2019-06-26T07:42:30.987Z,43.80
2019-06-26T07:43:30.955Z,33.80
2019-06-26T07:44:30.929Z,38.30
2019-06-26T07:45:30.907Z,41.00
2019-06-26T07:46:30.913Z,31.80
2019-06-26T07:47:42.665Z,39.90
2019-06-26T07:48:31.924Z,36.40
2019-06-26T07:49:30.873Z,29.50
2019-06-26T07:50:32.580Z,38.50
2019-06-26T07:51:30.847Z,42.20
2019-06-26T07:52:30.834Z,43.10
2019-06-26T07:53:30.830Z,42.40
2019-06-26T07:54:30.860Z,43.00
2019-06-26T07:55:30.815Z,42.30
2019-06-26T07:56:30.794Z,39.30
2019-06-26T07:57:30.792Z,34.60
2019-06-26T07:58:30.777Z,37.90
2019-06-26T07:59:30.794Z,37.80
2019-06-26T08:00:31.769Z,36.40
2019-06-26T08:01:30.743Z,33.10
2019-06-26T08:02:39.011Z,38.30
2019-06-26T08:03:30.832Z,38.40
2019-06-26T08:04:39.334Z,39.90
2019-06-26T08:05:30.721Z,42.90
2019-06-26T08:06:38.247Z,36.20
2019-06-26T08:07:30.701Z,41.40
2019-06-26T08:08:30.885Z,37.30
2019-06-26T08:09:30.702Z,35.60
2019-06-26T08:10:30.650Z,39.60
2019-06-26T08:11:30.665Z,35.70
2019-06-26T08:12:30.631Z,31.90
2019-06-26T08:13:30.637Z,35.60
2019-06-26T08:14:30.633Z,34.50
2019-06-26T08:15:30.607Z,29.60
2019-06-26T08:16:34.284Z,40.70
2019-06-26T08:17:30.587Z,37.30
2019-06-26T08:18:30.656Z,32.90
2019-06-26T08:19:30.609Z,35.00
2019-06-26T08:20:30.569Z,34.60
2019-06-26T08:21:30.542Z,37.60
2019-06-26T08:22:30.528Z,34.10
2019-06-26T08:23:30.519Z,37.10
2019-06-26T08:24:30.539Z,40.00
2019-06-26T08:25:30.498Z,41.70
2019-06-26T08:26:30.492Z,35.30
2019-06-26T08:27:30.504Z,34.60
2019-06-26T08:28:30.474Z,35.60
2019-06-26T08:29:30.475Z,36.60
2019-06-26T08:30:30.444Z,37.20
2019-06-26T08:31:30.453Z,43.40
2019-06-26T08:32:30.424Z,36.00
2019-06-26T08:33:30.417Z,36.50
2019-06-26T08:34:30.449Z,33.10
2019-06-26T08:35:30.403Z,35.10
2019-06-26T08:36:30.410Z,32.70
2019-06-26T08:37:30.369Z,32.80
2019-06-26T08:38:30.359Z,32.10
2019-06-26T08:39:30.419Z,32.50
2019-06-26T08:40:30.333Z,27.30
2019-06-26T08:41:30.342Z,28.90
2019-06-26T08:42:30.315Z,35.60
2019-06-26T08:43:31.581Z,35.10
2019-06-26T08:44:30.312Z,31.40
2019-06-26T08:45:30.279Z,27.00
2019-06-26T08:46:30.271Z,36.20
2019-06-26T08:47:30.275Z,31.80
2019-06-26T08:48:39.370Z,40.80
2019-06-26T08:49:31.255Z,34.90
2019-06-26T08:50:30.247Z,32.80
2019-06-26T08:51:30.216Z,34.30
2019-06-26T08:52:30.199Z,31.80
2019-06-26T08:53:30.230Z,33.20
2019-06-26T08:54:30.209Z,32.10
2019-06-26T08:55:30.244Z,32.10
2019-06-26T08:56:30.166Z,29.80
2019-06-26T08:57:30.153Z,26.20
2019-06-26T08:58:30.139Z,27.90
2019-06-26T08:59:30.150Z,31.30
2019-06-26T09:00:30.112Z,32.20
2019-06-26T09:01:30.173Z,30.10
2019-06-26T09:02:30.099Z,32.80
2019-06-26T09:03:30.081Z,31.80
2019-06-26T09:04:30.097Z,29.20
2019-06-26T09:05:48.070Z,31.00
2019-06-26T09:06:31.095Z,30.20
2019-06-26T09:07:30.243Z,31.60
2019-06-26T09:08:30.179Z,28.00
2019-06-26T09:09:30.059Z,24.70
2019-06-26T09:10:30.016Z,29.50
2019-06-26T09:11:30.008Z,30.60
2019-06-26T09:12:30.024Z,30.20
2019-06-26T09:13:29.988Z,26.60
2019-06-26T09:14:29.983Z,26.40
2019-06-26T09:15:29.956Z,26.50
2019-06-26T09:16:29.948Z,24.40
2019-06-26T09:17:29.944Z,27.60
2019-06-26T09:18:35.420Z,25.50
2019-06-26T09:20:40.861Z,27.70
2019-06-26T09:21:41.017Z,28.30
2019-06-26T09:22:40.757Z,24.40
2019-06-26T09:23:40.711Z,24.90
2019-06-26T09:24:40.756Z,27.50
2019-06-26T09:25:40.746Z,25.80
2019-06-26T09:26:40.710Z,24.10
2019-06-26T09:27:40.694Z,28.50
2019-06-26T09:28:40.671Z,26.10
2019-06-26T09:29:40.680Z,28.90
2019-06-26T09:30:40.649Z,29.90
2019-06-26T09:31:40.626Z,32.70
2019-06-26T09:32:40.625Z,31.50
2019-06-26T09:33:40.718Z,29.70
2019-06-26T09:34:40.633Z,34.30
2019-06-26T09:35:40.620Z,29.10
2019-06-26T09:36:40.601Z,34.10
2019-06-26T09:37:40.568Z,31.40
2019-06-26T09:38:40.565Z,31.40
2019-06-26T09:39:40.586Z,27.60
2019-06-26T09:40:40.541Z,25.50
2019-06-26T09:41:40.561Z,30.70
2019-06-26T09:42:40.548Z,31.30
2019-06-26T09:43:40.513Z,26.60
2019-06-26T09:44:48.292Z,26.80
2019-06-26T09:45:40.703Z,29.00
2019-06-26T09:46:40.498Z,31.80
2019-06-26T09:47:40.479Z,32.80
2019-06-26T09:48:52.008Z,30.20
2019-06-26T09:49:41.483Z,28.80
2019-06-26T09:50:40.441Z,28.90
2019-06-26T09:51:40.453Z,28.00
2019-06-26T09:52:40.428Z,25.20
2019-06-26T09:53:47.196Z,28.10
2019-06-26T09:54:41.492Z,31.40
2019-06-26T09:55:40.393Z,25.10
2019-06-26T09:56:48.012Z,25.00
2019-06-26T09:57:40.505Z,23.10
2019-06-26T09:58:41.082Z,23.20
2019-06-26T09:59:40.400Z,23.80
2019-06-26T10:00:40.347Z,23.00
2019-06-26T10:01:40.328Z,22.00
2019-06-26T10:02:48.851Z,24.40
2019-06-26T10:03:40.354Z,23.60
2019-06-26T10:04:40.468Z,21.80
2019-06-26T10:05:47.902Z,21.70
2019-06-26T10:06:40.358Z,23.50
2019-06-26T10:07:40.479Z,24.40
2019-06-26T10:08:40.289Z,23.90
2019-06-26T10:09:40.297Z,27.30
2019-06-26T10:10:40.237Z,22.10
2019-06-26T10:11:40.227Z,22.60
2019-06-26T10:12:40.218Z,22.90
2019-06-26T10:13:40.203Z,23.80
2019-06-26T10:14:47.390Z,22.30
2019-06-26T10:15:41.220Z,21.70
2019-06-26T10:16:40.179Z,22.50
2019-06-26T10:17:40.166Z,19.20
2019-06-26T10:18:40.183Z,21.60
2019-06-26T10:19:40.172Z,22.40
2019-06-26T10:20:40.146Z,20.20
2019-06-26T10:21:40.132Z,24.10
2019-06-26T10:22:40.117Z,21.50
2019-06-26T10:23:40.122Z,19.80
2019-06-26T10:24:40.124Z,20.80
2019-06-26T10:25:40.089Z,18.60
2019-06-26T10:26:40.079Z,19.20
2019-06-26T10:27:40.084Z,22.90
2019-06-26T10:28:40.060Z,24.70
2019-06-26T10:29:40.099Z,22.30
2019-06-26T10:30:40.055Z,22.00
2019-06-26T10:31:47.813Z,20.00
2019-06-26T10:32:40.123Z,19.80
2019-06-26T10:33:40.078Z,21.30
2019-06-26T10:34:41.581Z,27.00
2019-06-26T10:35:40.083Z,22.40
2019-06-26T10:36:39.993Z,24.30
2019-06-26T10:37:40.198Z,19.70
2019-06-26T10:38:40.031Z,21.00
2019-06-26T10:39:40.532Z,22.70
2019-06-26T10:40:39.986Z,21.60
2019-06-26T10:41:40.599Z,22.90
2019-06-26T10:42:40.058Z,24.10
2019-06-26T10:43:39.952Z,20.50
2019-06-26T10:44:39.935Z,24.00
2019-06-26T10:45:39.906Z,18.40
2019-06-26T10:46:39.904Z,22.50
2019-06-26T10:47:40.255Z,20.00
2019-06-26T10:48:39.988Z,23.70
2019-06-26T10:49:40.348Z,20.80
2019-06-26T10:50:49.919Z,23.40
2019-06-26T10:52:51.115Z,26.60
2019-06-26T10:53:58.347Z,25.30
2019-06-26T10:54:50.627Z,22.40
2019-06-26T10:55:58.286Z,21.60
2019-06-26T10:56:50.586Z,21.20
2019-06-26T10:57:58.150Z,21.30
2019-06-26T10:58:50.542Z,22.50
2019-06-26T10:59:50.625Z,20.00
2019-06-26T11:00:50.518Z,27.20
2019-06-26T11:01:50.477Z,22.90
2019-06-26T11:02:58.337Z,23.10
2019-06-26T11:03:50.543Z,24.10
2019-06-26T11:04:58.172Z,21.10
2019-06-26T11:05:50.527Z,23.40
2019-06-26T11:06:51.915Z,25.10
2019-06-26T11:07:50.474Z,21.80
2019-06-26T11:08:50.456Z,28.90
2019-06-26T11:09:50.419Z,26.80
2019-06-26T11:10:58.604Z,27.10
2019-06-26T11:11:50.807Z,26.60
2019-06-26T11:12:58.049Z,23.10
2019-06-26T11:13:50.502Z,29.40
2019-06-26T11:15:01.233Z,26.50
2019-06-26T11:15:50.388Z,29.30
2019-06-26T11:16:51.330Z,31.30
2019-06-26T11:17:50.322Z,27.90
2019-06-26T11:18:50.313Z,25.40
2019-06-26T11:19:57.953Z,28.40
2019-06-26T11:20:50.364Z,27.70
2019-06-26T11:21:50.484Z,27.00
2019-06-26T11:22:57.955Z,26.70
2019-06-26T11:23:50.302Z,27.70
2019-06-26T11:24:50.480Z,26.80
2019-06-26T11:25:51.642Z,29.00
2019-06-26T11:26:50.214Z,25.60
2019-06-26T11:27:50.272Z,22.40
2019-06-26T11:28:50.205Z,23.00
2019-06-26T11:29:50.250Z,23.00
2019-06-26T11:30:58.468Z,23.30
2019-06-26T11:33:07.327Z,24.10
2019-06-26T11:34:07.489Z,23.10
2019-06-26T11:35:07.593Z,23.00
2019-06-26T11:36:07.196Z,21.70
2019-06-26T11:37:15.083Z,23.40
2019-06-26T11:38:07.363Z,21.90
2019-06-26T11:39:15.011Z,21.80
2019-06-26T11:40:07.243Z,20.80
2019-06-26T11:41:14.719Z,18.50
2019-06-26T11:42:07.191Z,19.10
2019-06-26T11:43:14.798Z,25.50
2019-06-26T11:44:08.058Z,31.90
2019-06-26T11:45:16.819Z,27.80
2019-06-26T11:46:07.151Z,25.10
2019-06-26T11:47:14.705Z,23.80
2019-06-26T11:48:07.117Z,26.40
2019-06-26T11:49:07.188Z,20.70
2019-06-26T11:50:07.135Z,22.90
2019-06-26T11:51:07.023Z,25.30
2019-06-26T11:52:14.736Z,21.10
2019-06-26T11:53:16.417Z,22.70
2019-06-26T11:54:07.127Z,22.30
2019-06-26T11:55:07.752Z,26.00
2019-06-26T11:56:06.973Z,21.30
2019-06-26T11:57:08.434Z,28.60
2019-06-26T11:58:07.063Z,26.10
2019-06-26T11:59:06.940Z,24.90
2019-06-26T12:00:14.708Z,21.20
2019-06-26T12:01:07.046Z,19.30
2019-06-26T12:02:07.048Z,20.20
2019-06-26T12:03:06.910Z,22.80
2019-06-26T12:04:06.889Z,29.60
2019-06-26T12:05:07.793Z,30.20
2019-06-26T12:06:18.876Z,29.90
2019-06-26T12:07:06.969Z,24.90
2019-06-26T12:08:08.339Z,22.50
2019-06-26T12:09:06.848Z,24.00
2019-06-26T12:10:06.948Z,19.30
2019-06-26T12:11:06.815Z,23.40
2019-06-26T12:12:06.835Z,23.30
2019-06-26T12:13:06.841Z,25.10
2019-06-26T12:14:06.797Z,24.30
2019-06-26T12:15:14.491Z,21.40
2019-06-26T12:16:06.837Z,24.40
2019-06-26T12:17:14.379Z,22.50
2019-06-26T12:18:06.805Z,29.00
2019-06-26T12:19:06.837Z,26.40
2019-06-26T12:20:19.144Z,27.10
2019-06-26T12:21:07.781Z,26.20
2019-06-26T12:22:07.141Z,30.70
2019-06-26T12:23:06.714Z,25.00
2019-06-26T12:24:06.727Z,32.80
2019-06-26T12:25:06.791Z,26.90
2019-06-26T12:26:06.737Z,27.10
2019-06-26T12:27:06.664Z,25.80
2019-06-26T12:28:06.672Z,24.40
2019-06-26T12:29:06.636Z,25.90
2019-06-26T12:30:06.630Z,26.60
2019-06-26T12:31:14.467Z,28.50
2019-06-26T12:32:06.793Z,25.80
2019-06-26T12:33:14.215Z,24.90
2019-06-26T12:34:06.640Z,28.60
2019-06-26T12:35:06.733Z,27.90
2019-06-26T12:36:06.580Z,30.20
2019-06-26T12:37:06.618Z,31.00
2019-06-26T12:38:14.154Z,28.10
2019-06-26T12:39:06.636Z,24.80
2019-06-26T12:40:14.121Z,29.10
2019-06-26T12:41:06.595Z,33.70
2019-06-26T12:42:15.208Z,35.10
2019-06-26T12:43:06.558Z,33.70
2019-06-26T12:44:14.141Z,31.70
2019-06-26T12:45:06.851Z,28.40
2019-06-26T12:46:17.210Z,33.80
2019-06-26T12:47:06.547Z,37.50
2019-06-26T12:48:07.688Z,40.40
2019-06-26T12:49:06.441Z,33.80
2019-06-26T12:50:06.439Z,32.90
2019-06-26T12:51:14.075Z,31.00
2019-06-26T12:52:06.509Z,30.30
2019-06-26T12:53:06.643Z,34.30
2019-06-26T12:54:06.432Z,31.70
2019-06-26T12:55:06.385Z,33.70
2019-06-26T12:56:14.026Z,30.00
2019-06-26T12:57:06.665Z,30.90
2019-06-26T12:58:13.163Z,30.00
2019-06-26T12:59:07.366Z,31.80
2019-06-26T13:00:06.328Z,29.40
2019-06-26T13:01:13.956Z,23.00
2019-06-26T13:02:06.471Z,25.00
2019-06-26T13:03:14.013Z,26.70
2019-06-26T13:04:06.360Z,24.90
2019-06-26T13:05:06.375Z,25.40
2019-06-26T13:06:13.940Z,28.20
2019-06-26T13:07:06.435Z,25.00
2019-06-26T13:08:06.819Z,28.20
2019-06-26T13:09:06.277Z,23.60
2019-06-26T13:10:07.563Z,24.00
2019-06-26T13:11:13.991Z,20.80
2019-06-26T13:12:06.371Z,23.40
2019-06-26T13:14:23.251Z,27.80
2019-06-26T13:15:30.823Z,28.30
2019-06-26T13:16:30.871Z,30.50
2019-06-26T13:17:30.827Z,25.30
2019-06-26T13:20:09.320Z,24.30
2019-06-26T13:21:13.088Z,22.00
2019-06-26T13:22:05.575Z,23.20
2019-06-26T13:23:14.877Z,19.40
2019-06-26T13:24:05.456Z,23.70
2019-06-26T13:25:15.810Z,19.30
2019-06-26T13:26:05.481Z,21.60
2019-06-26T13:27:13.021Z,25.80
2019-06-26T13:28:05.432Z,27.70
2019-06-26T13:29:12.969Z,27.70
2019-06-26T13:30:14.541Z,25.10
2019-06-26T13:31:13.072Z,26.50
2019-06-26T13:32:05.409Z,27.30
2019-06-26T13:33:12.958Z,27.60
2019-06-26T13:34:05.375Z,25.90
2019-06-26T13:35:12.913Z,26.40
2019-06-26T13:36:05.362Z,26.70
2019-06-26T13:37:12.988Z,26.20
2019-06-26T13:38:05.289Z,24.50
2019-06-26T13:39:12.892Z,25.20
2019-06-26T13:40:05.259Z,22.10
2019-06-26T13:41:12.882Z,23.30
2019-06-26T13:42:05.272Z,21.30
2019-06-26T13:43:05.392Z,23.10
2019-06-26T13:44:12.819Z,20.90
2019-06-26T13:45:05.237Z,24.30
2019-06-26T13:46:12.817Z,23.80
2019-06-26T13:47:14.421Z,21.60
2019-06-26T13:48:12.760Z,18.30
2019-06-26T13:49:05.188Z,20.30
2019-06-26T13:50:12.794Z,19.20